sensor_id;sensor_type;location;lat;lon;timestamp;pressure;altitude;pressure_sealevel;temperature;humidity
19676;BME280;39539;52.202;9.876;2023-05-23T00:01:31;100653.44;;;14.75;100.00
19676;BME280;39539;52.202;9.876;2023-05-23T00:03:57;100662.00;;;14.77;100.00
19676;BME280;39539;52.202;9.876;2023-05-23T00:06:24;100671.09;;;14.76;100.00
19676;BME280;39539;52.202;9.876;2023-05-23T00:08:51;100659.47;;;14.59;100.00
19676;BME280;39539;52.202;9.876;2023-05-23T00:11:17;100671.69;;;14.78;100.00
19676;BME280;39539;52.202;9.876;2023-05-23T00:13:44;100667.94;;;14.79;100.00
19676;BME280;39539;52.202;9.876;2023-05-23T00:16:09;100677.72;;;14.86;100.00
19676;BME280;39539;52.202;9.876;2023-05-23T00:18:36;100673.38;;;14.96;100.00
19676;BME280;39539;52.202;9.876;2023-05-23T00:21:02;100668.63;;;14.98;100.00
19676;BME280;39539;52.202;9.876;2023-05-23T00:23:28;100657.59;;;14.95;100.00
19676;BME280;39539;52.202;9.876;2023-05-23T00:25:55;100668.25;;;15.07;100.00
19676;BME280;39539;52.202;9.876;2023-05-23T00:28:21;100670.69;;;15.08;100.00
19676;BME280;39539;52.202;9.876;2023-05-23T00:30:47;100666.97;;;15.09;100.00
19676;BME280;39539;52.202;9.876;2023-05-23T00:33:16;100667.28;;;15.24;100.00
19676;BME280;39539;52.202;9.876;2023-05-23T00:35:41;100677.34;;;15.34;100.00
19676;BME280;39539;52.202;9.876;2023-05-23T00:38:07;100657.16;;;15.26;100.00
19676;BME280;39539;52.202;9.876;2023-05-23T00:40:33;100665.56;;;15.47;100.00
19676;BME280;39539;52.202;9.876;2023-05-23T00:43:00;100671.59;;;15.54;100.00
19676;BME280;39539;52.202;9.876;2023-05-23T00:45:27;100676.56;;;15.62;100.00
19676;BME280;39539;52.202;9.876;2023-05-23T00:47:53;100678.88;;;15.70;100.00
19676;BME280;39539;52.202;9.876;2023-05-23T00:50:19;100682.94;;;15.73;100.00
19676;BME280;39539;52.202;9.876;2023-05-23T00:52:47;100676.78;;;15.73;100.00
19676;BME280;39539;52.202;9.876;2023-05-23T00:55:13;100681.16;;;15.79;100.00
19676;BME280;39539;52.202;9.876;2023-05-23T00:57:39;100669.31;;;15.75;100.00
19676;BME280;39539;52.202;9.876;2023-05-23T01:00:10;100690.44;;;15.88;100.00
19676;BME280;39539;52.202;9.876;2023-05-23T01:02:43;100683.56;;;15.92;100.00
19676;BME280;39539;52.202;9.876;2023-05-23T01:05:16;100684.69;;;15.96;100.00
19676;BME280;39539;52.202;9.876;2023-05-23T01:07:45;100670.47;;;15.96;100.00
19676;BME280;39539;52.202;9.876;2023-05-23T01:10:21;100668.78;;;16.06;100.00
19676;BME280;39539;52.202;9.876;2023-05-23T01:15:28;100671.69;;;16.05;100.00
19676;BME280;39539;52.202;9.876;2023-05-23T01:20:36;100676.50;;;16.20;100.00
19676;BME280;39539;52.202;9.876;2023-05-23T01:28:02;100673.75;;;16.14;100.00
19676;BME280;39539;52.202;9.876;2023-05-23T01:30:37;100663.81;;;15.98;100.00
19676;BME280;39539;52.202;9.876;2023-05-23T01:33:03;100669.09;;;15.93;100.00
19676;BME280;39539;52.202;9.876;2023-05-23T01:35:30;100682.50;;;15.93;100.00
19676;BME280;39539;52.202;9.876;2023-05-23T01:37:56;100686.16;;;15.87;100.00
19676;BME280;39539;52.202;9.876;2023-05-23T01:40:23;100691.81;;;15.90;100.00
19676;BME280;39539;52.202;9.876;2023-05-23T01:42:48;100694.66;;;15.84;100.00
19676;BME280;39539;52.202;9.876;2023-05-23T01:45:15;100682.72;;;15.75;100.00
19676;BME280;39539;52.202;9.876;2023-05-23T01:47:42;100689.78;;;15.81;100.00
19676;BME280;39539;52.202;9.876;2023-05-23T01:50:10;100667.59;;;15.68;100.00
19676;BME280;39539;52.202;9.876;2023-05-23T01:52:36;100687.03;;;15.76;100.00
19676;BME280;39539;52.202;9.876;2023-05-23T01:55:04;100676.09;;;15.65;100.00
19676;BME280;39539;52.202;9.876;2023-05-23T01:57:35;100682.06;;;15.56;100.00
19676;BME280;39539;52.202;9.876;2023-05-23T02:00:05;100679.53;;;15.49;100.00
19676;BME280;39539;52.202;9.876;2023-05-23T02:02:32;100694.31;;;15.52;100.00
19676;BME280;39539;52.202;9.876;2023-05-23T02:04:58;100700.72;;;15.50;100.00
19676;BME280;39539;52.202;9.876;2023-05-23T02:07:24;100699.59;;;15.46;100.00
19676;BME280;39539;52.202;9.876;2023-05-23T02:09:50;100691.59;;;15.35;100.00
19676;BME280;39539;52.202;9.876;2023-05-23T02:12:15;100698.09;;;15.39;100.00
19676;BME280;39539;52.202;9.876;2023-05-23T02:14:42;100696.25;;;15.27;100.00
19676;BME280;39539;52.202;9.876;2023-05-23T02:17:10;100688.03;;;15.17;100.00
19676;BME280;39539;52.202;9.876;2023-05-23T02:19:35;100677.69;;;15.09;100.00
19676;BME280;39539;52.202;9.876;2023-05-23T02:22:01;100691.63;;;15.11;100.00
19676;BME280;39539;52.202;9.876;2023-05-23T02:24:29;100695.97;;;15.00;100.00
19676;BME280;39539;52.202;9.876;2023-05-23T02:26:55;100703.66;;;14.97;100.00
19676;BME280;39539;52.202;9.876;2023-05-23T02:29:20;100695.41;;;14.87;100.00
19676;BME280;39539;52.202;9.876;2023-05-23T02:31:46;100692.63;;;14.81;100.00
19676;BME280;39539;52.202;9.876;2023-05-23T02:34:11;100710.66;;;14.86;100.00
19676;BME280;39539;52.202;9.876;2023-05-23T02:36:36;100706.47;;;14.78;100.00
19676;BME280;39539;52.202;9.876;2023-05-23T02:39:03;100711.56;;;14.80;100.00
19676;BME280;39539;52.202;9.876;2023-05-23T02:41:29;100718.78;;;14.79;100.00
19676;BME280;39539;52.202;9.876;2023-05-23T02:43:55;100716.84;;;14.75;100.00
19676;BME280;39539;52.202;9.876;2023-05-23T02:46:22;100729.38;;;14.74;100.00
19676;BME280;39539;52.202;9.876;2023-05-23T02:48:48;100702.75;;;14.56;100.00
19676;BME280;39539;52.202;9.876;2023-05-23T02:51:14;100714.03;;;14.58;100.00
19676;BME280;39539;52.202;9.876;2023-05-23T02:53:40;100719.13;;;14.59;100.00
19676;BME280;39539;52.202;9.876;2023-05-23T02:56:06;100726.66;;;14.51;100.00
19676;BME280;39539;52.202;9.876;2023-05-23T02:58:32;100718.22;;;14.54;100.00
19676;BME280;39539;52.202;9.876;2023-05-23T03:01:02;100723.41;;;14.49;100.00
19676;BME280;39539;52.202;9.876;2023-05-23T03:03:28;100737.25;;;14.46;100.00
19676;BME280;39539;52.202;9.876;2023-05-23T03:05:57;100721.44;;;14.32;100.00
19676;BME280;39539;52.202;9.876;2023-05-23T03:08:23;100723.50;;;14.30;100.00
19676;BME280;39539;52.202;9.876;2023-05-23T03:10:49;100716.50;;;14.29;100.00
19676;BME280;39539;52.202;9.876;2023-05-23T03:13:17;100708.47;;;14.18;100.00
19676;BME280;39539;52.202;9.876;2023-05-23T03:15:42;100717.66;;;14.10;100.00
19676;BME280;39539;52.202;9.876;2023-05-23T03:18:08;100698.53;;;13.95;100.00
19676;BME280;39539;52.202;9.876;2023-05-23T03:20:33;100719.59;;;14.03;100.00
19676;BME280;39539;52.202;9.876;2023-05-23T03:22:59;100710.53;;;14.04;100.00
19676;BME280;39539;52.202;9.876;2023-05-23T03:25:24;100720.78;;;14.07;100.00
19676;BME280;39539;52.202;9.876;2023-05-23T03:27:50;100707.66;;;14.05;100.00
19676;BME280;39539;52.202;9.876;2023-05-23T03:30:18;100702.50;;;14.04;100.00
19676;BME280;39539;52.202;9.876;2023-05-23T03:32:43;100721.03;;;14.17;100.00
19676;BME280;39539;52.202;9.876;2023-05-23T03:35:10;100717.31;;;14.18;100.00
19676;BME280;39539;52.202;9.876;2023-05-23T03:37:35;100724.06;;;14.21;100.00
19676;BME280;39539;52.202;9.876;2023-05-23T03:40:01;100702.00;;;14.25;100.00
19676;BME280;39539;52.202;9.876;2023-05-23T03:42:27;100724.31;;;14.43;100.00
19676;BME280;39539;52.202;9.876;2023-05-23T03:44:52;100689.09;;;14.22;100.00
19676;BME280;39539;52.202;9.876;2023-05-23T03:47:18;100707.47;;;14.30;100.00
19676;BME280;39539;52.202;9.876;2023-05-23T03:49:46;100713.03;;;14.29;100.00
19676;BME280;39539;52.202;9.876;2023-05-23T03:52:11;100715.63;;;14.35;100.00
19676;BME280;39539;52.202;9.876;2023-05-23T03:54:37;100714.44;;;14.31;100.00
19676;BME280;39539;52.202;9.876;2023-05-23T03:57:02;100709.19;;;14.25;100.00
19676;BME280;39539;52.202;9.876;2023-05-23T03:59:29;100707.94;;;14.27;100.00
19676;BME280;39539;52.202;9.876;2023-05-23T04:01:54;100709.31;;;14.30;100.00
19676;BME280;39539;52.202;9.876;2023-05-23T04:04:23;100689.69;;;14.24;100.00
19676;BME280;39539;52.202;9.876;2023-05-23T04:06:52;100699.78;;;14.22;100.00
19676;BME280;39539;52.202;9.876;2023-05-23T04:09:17;100715.03;;;14.33;100.00
19676;BME280;39539;52.202;9.876;2023-05-23T04:11:44;100693.03;;;14.20;100.00
19676;BME280;39539;52.202;9.876;2023-05-23T04:14:11;100718.03;;;14.37;100.00
19676;BME280;39539;52.202;9.876;2023-05-23T04:16:39;100711.75;;;14.31;100.00
19676;BME280;39539;52.202;9.876;2023-05-23T04:19:06;100717.09;;;14.31;100.00
19676;BME280;39539;52.202;9.876;2023-05-23T04:21:32;100702.91;;;14.19;100.00
19676;BME280;39539;52.202;9.876;2023-05-23T04:24:00;100728.41;;;14.33;100.00
19676;BME280;39539;52.202;9.876;2023-05-23T04:26:25;100728.41;;;14.33;100.00
19676;BME280;39539;52.202;9.876;2023-05-23T04:28:50;100727.34;;;14.34;100.00
19676;BME280;39539;52.202;9.876;2023-05-23T04:31:18;100726.31;;;14.35;100.00
19676;BME280;39539;52.202;9.876;2023-05-23T04:33:44;100727.34;;;14.34;100.00
19676;BME280;39539;52.202;9.876;2023-05-23T04:36:09;100716.19;;;14.37;100.00
19676;BME280;39539;52.202;9.876;2023-05-23T04:38:35;100713.75;;;14.48;100.00
19676;BME280;39539;52.202;9.876;2023-05-23T04:41:03;100723.00;;;14.64;100.00
19676;BME280;39539;52.202;9.876;2023-05-23T04:43:33;100721.94;;;14.76;100.00
19676;BME280;39539;52.202;9.876;2023-05-23T04:45:58;100728.00;;;14.84;100.00
19676;BME280;39539;52.202;9.876;2023-05-23T04:48:25;100720.91;;;14.89;100.00
19676;BME280;39539;52.202;9.876;2023-05-23T04:50:57;100714.03;;;14.81;100.00
19676;BME280;39539;52.202;9.876;2023-05-23T04:53:35;100724.84;;;14.98;100.00
19676;BME280;39539;52.202;9.876;2023-05-23T04:56:01;100726.78;;;15.03;100.00
19676;BME280;39539;52.202;9.876;2023-05-23T04:58:28;100731.69;;;15.06;100.00
19676;BME280;39539;52.202;9.876;2023-05-23T05:00:53;100730.53;;;15.02;100.00
19676;BME280;39539;52.202;9.876;2023-05-23T05:03:20;100721.00;;;14.82;100.00
19676;BME280;39539;52.202;9.876;2023-05-23T05:05:46;100713.56;;;14.85;100.00
19676;BME280;39539;52.202;9.876;2023-05-23T05:08:13;100734.63;;;14.93;100.00
19676;BME280;39539;52.202;9.876;2023-05-23T05:10:41;100728.09;;;14.89;100.00
19676;BME280;39539;52.202;9.876;2023-05-23T05:13:07;100727.53;;;14.87;100.00
19676;BME280;39539;52.202;9.876;2023-05-23T05:15:33;100710.44;;;14.76;100.00
19676;BME280;39539;52.202;9.876;2023-05-23T05:18:00;100733.34;;;14.84;100.00
19676;BME280;39539;52.202;9.876;2023-05-23T05:20:25;100712.16;;;14.70;100.00
19676;BME280;39539;52.202;9.876;2023-05-23T05:22:57;100734.25;;;14.77;100.00
19676;BME280;39539;52.202;9.876;2023-05-23T05:25:24;100733.09;;;14.73;100.00
19676;BME280;39539;52.202;9.876;2023-05-23T05:28:01;100707.94;;;14.51;100.00
19676;BME280;39539;52.202;9.876;2023-05-23T05:30:31;100730.66;;;14.60;100.00
19676;BME280;39539;52.202;9.876;2023-05-23T05:33:07;100727.97;;;14.60;100.00
19676;BME280;39539;52.202;9.876;2023-05-23T05:35:33;100731.72;;;14.59;100.00
19676;BME280;39539;52.202;9.876;2023-05-23T05:38:02;100724.28;;;14.61;100.00
19676;BME280;39539;52.202;9.876;2023-05-23T05:40:29;100731.72;;;14.59;100.00
19676;BME280;39539;52.202;9.876;2023-05-23T05:42:54;100716.91;;;14.45;100.00
19676;BME280;39539;52.202;9.876;2023-05-23T05:45:23;100735.06;;;14.54;100.00
19676;BME280;39539;52.202;9.876;2023-05-23T05:47:50;100730.78;;;14.53;100.00
19676;BME280;39539;52.202;9.876;2023-05-23T05:50:16;100717.13;;;14.43;100.00
19676;BME280;39539;52.202;9.876;2023-05-23T05:52:47;100725.19;;;14.55;100.00
19676;BME280;39539;52.202;9.876;2023-05-23T05:55:21;100741.13;;;14.62;100.00
19676;BME280;39539;52.202;9.876;2023-05-23T05:58:15;100728.78;;;14.60;100.00
19676;BME280;39539;52.202;9.876;2023-05-23T06:00:53;100739.94;;;14.57;100.00
19676;BME280;39539;52.202;9.876;2023-05-23T06:03:22;100726.56;;;14.57;100.00
19676;BME280;39539;52.202;9.876;2023-05-23T06:05:53;100720.53;;;14.62;100.00
19676;BME280;39539;52.202;9.876;2023-05-23T06:08:21;100725.28;;;14.72;100.00
19676;BME280;39539;52.202;9.876;2023-05-23T06:10:52;100722.16;;;14.63;100.00
19676;BME280;39539;52.202;9.876;2023-05-23T06:13:18;100740.19;;;14.68;100.00
19676;BME280;39539;52.202;9.876;2023-05-23T06:15:47;100733.31;;;14.60;100.00
19676;BME280;39539;52.202;9.876;2023-05-23T06:18:12;100726.22;;;14.66;100.00
19676;BME280;39539;52.202;9.876;2023-05-23T06:21:08;100742.06;;;14.79;100.00
19676;BME280;39539;52.202;9.876;2023-05-23T06:23:43;100743.94;;;14.78;100.00
19676;BME280;39539;52.202;9.876;2023-05-23T06:26:10;100729.84;;;14.71;100.00
19676;BME280;39539;52.202;9.876;2023-05-23T06:28:56;100742.06;;;14.79;100.00
19676;BME280;39539;52.202;9.876;2023-05-23T06:31:24;100716.34;;;14.66;100.00
19676;BME280;39539;52.202;9.876;2023-05-23T06:33:56;100717.41;;;14.65;100.00
19676;BME280;39539;52.202;9.876;2023-05-23T06:36:23;100716.25;;;14.61;100.00
19676;BME280;39539;52.202;9.876;2023-05-23T06:39:01;100734.97;;;14.73;100.00
19676;BME280;39539;52.202;9.876;2023-05-23T06:41:47;100744.97;;;14.77;100.00
19676;BME280;39539;52.202;9.876;2023-05-23T06:44:13;100706.81;;;14.58;100.00
19676;BME280;39539;52.202;9.876;2023-05-23T06:47:13;100740.19;;;14.79;100.00
19676;BME280;39539;52.202;9.876;2023-05-23T06:49:48;100729.72;;;14.66;100.00
19676;BME280;39539;52.202;9.876;2023-05-23T06:52:18;100736.84;;;14.72;100.00
19676;BME280;39539;52.202;9.876;2023-05-23T06:54:44;100727.50;;;14.63;100.00
19676;BME280;39539;52.202;9.876;2023-05-23T06:57:37;100751.03;;;14.85;100.00
19676;BME280;39539;52.202;9.876;2023-05-23T07:00:11;100760.69;;;14.86;100.00
19676;BME280;39539;52.202;9.876;2023-05-23T07:02:38;100730.31;;;14.68;100.00
19676;BME280;39539;52.202;9.876;2023-05-23T07:05:10;100736.00;;;14.72;100.00
19676;BME280;39539;52.202;9.876;2023-05-23T07:07:38;100767.22;;;14.90;100.00
19676;BME280;39539;52.202;9.876;2023-05-23T07:10:04;100766.97;;;14.91;100.00
19676;BME280;39539;52.202;9.876;2023-05-23T07:12:30;100732.41;;;14.66;100.00
19676;BME280;39539;52.202;9.876;2023-05-23T07:14:59;100740.41;;;14.54;100.00
19676;BME280;39539;52.202;9.876;2023-05-23T07:17:30;100746.06;;;14.46;100.00
19676;BME280;39539;52.202;9.876;2023-05-23T07:20:17;100766.34;;;14.54;100.00
19676;BME280;39539;52.202;9.876;2023-05-23T07:22:44;100736.41;;;14.33;100.00
19676;BME280;39539;52.202;9.876;2023-05-23T07:25:19;100763.75;;;14.47;100.00
19676;BME280;39539;52.202;9.876;2023-05-23T07:27:53;100761.91;;;14.48;100.00
19676;BME280;39539;52.202;9.876;2023-05-23T07:30:40;100780.66;;;14.59;100.00
19676;BME280;39539;52.202;9.876;2023-05-23T07:33:07;100781.94;;;14.57;100.00
19676;BME280;39539;52.202;9.876;2023-05-23T07:35:33;100782.41;;;14.54;100.00
19676;BME280;39539;52.202;9.876;2023-05-23T07:37:59;100751.66;;;14.33;100.00
19676;BME280;39539;52.202;9.876;2023-05-23T07:40:29;100758.88;;;14.32;100.00
19676;BME280;39539;52.202;9.876;2023-05-23T07:43:00;100756.75;;;14.34;100.00
19676;BME280;39539;52.202;9.876;2023-05-23T07:45:34;100763.75;;;14.35;100.00
19676;BME280;39539;52.202;9.876;2023-05-23T07:48:01;100777.81;;;14.43;100.00
19676;BME280;39539;52.202;9.876;2023-05-23T07:50:36;100778.16;;;14.34;100.00
19676;BME280;39539;52.202;9.876;2023-05-23T07:53:03;100773.25;;;14.31;100.00
19676;BME280;39539;52.202;9.876;2023-05-23T07:55:30;100797.28;;;14.50;100.00
19676;BME280;39539;52.202;9.876;2023-05-23T07:57:56;100779.22;;;14.45;100.00
19676;BME280;39539;52.202;9.876;2023-05-23T08:00:25;100790.72;;;14.46;100.00
19676;BME280;39539;52.202;9.876;2023-05-23T08:03:03;100810.09;;;14.59;100.00
19676;BME280;39539;52.202;9.876;2023-05-23T08:05:34;100775.59;;;14.40;100.00
19676;BME280;39539;52.202;9.876;2023-05-23T08:07:59;100780.50;;;14.43;100.00
19676;BME280;39539;52.202;9.876;2023-05-23T08:10:26;100809.59;;;14.51;100.00
19676;BME280;39539;52.202;9.876;2023-05-23T08:12:55;100800.88;;;14.44;100.00
19676;BME280;39539;52.202;9.876;2023-05-23T08:15:21;100812.13;;;14.46;100.00
19676;BME280;39539;52.202;9.876;2023-05-23T08:17:51;100811.66;;;14.49;100.00
19676;BME280;39539;52.202;9.876;2023-05-23T08:20:22;100797.47;;;14.36;100.00
19676;BME280;39539;52.202;9.876;2023-05-23T08:23:10;100825.16;;;14.42;100.00
19676;BME280;39539;52.202;9.876;2023-05-23T08:25:37;100804.19;;;14.27;100.00
19676;BME280;39539;52.202;9.876;2023-05-23T08:28:06;100843.53;;;14.38;100.00
19676;BME280;39539;52.202;9.876;2023-05-23T08:30:33;100848.63;;;14.40;100.00
19676;BME280;39539;52.202;9.876;2023-05-23T08:33:08;100846.50;;;14.30;100.00
19676;BME280;39539;52.202;9.876;2023-05-23T08:35:33;100847.72;;;14.16;100.00
19676;BME280;39539;52.202;9.876;2023-05-23T08:38:04;100822.06;;;13.97;100.00
19676;BME280;39539;52.202;9.876;2023-05-23T08:40:31;100829.03;;;13.98;100.00
19676;BME280;39539;52.202;9.876;2023-05-23T08:43:00;100823.13;;;13.96;100.00
19676;BME280;39539;52.202;9.876;2023-05-23T08:45:28;100820.66;;;13.94;100.00
19676;BME280;39539;52.202;9.876;2023-05-23T08:47:59;100839.38;;;13.94;100.00
19676;BME280;39539;52.202;9.876;2023-05-23T08:50:27;100861.72;;;14.00;100.00
19676;BME280;39539;52.202;9.876;2023-05-23T08:52:58;100875.88;;;14.00;100.00
19676;BME280;39539;52.202;9.876;2023-05-23T08:55:25;100875.16;;;13.93;100.00
19676;BME280;39539;52.202;9.876;2023-05-23T08:57:52;100869.31;;;13.84;100.00
19676;BME280;39539;52.202;9.876;2023-05-23T09:00:18;100886.22;;;13.97;100.00
19676;BME280;39539;52.202;9.876;2023-05-23T09:02:45;100881.78;;;13.90;100.00
19676;BME280;39539;52.202;9.876;2023-05-23T09:05:12;100895.34;;;13.89;100.00
19676;BME280;39539;52.202;9.876;2023-05-23T09:07:39;100884.44;;;13.72;100.00
19676;BME280;39539;52.202;9.876;2023-05-23T09:10:06;100890.81;;;13.71;100.00
19676;BME280;39539;52.202;9.876;2023-05-23T09:12:34;100909.44;;;13.78;100.00
19676;BME280;39539;52.202;9.876;2023-05-23T09:15:06;100907.28;;;13.86;100.00
19676;BME280;39539;52.202;9.876;2023-05-23T09:17:35;100911.72;;;13.92;100.00
19676;BME280;39539;52.202;9.876;2023-05-23T09:20:13;100899.88;;;13.88;100.00
19676;BME280;39539;52.202;9.876;2023-05-23T09:22:39;100900.53;;;13.84;100.00
19676;BME280;39539;52.202;9.876;2023-05-23T09:25:08;100920.19;;;13.89;100.00
19676;BME280;39539;52.202;9.876;2023-05-23T09:27:39;100923.75;;;13.83;100.00
19676;BME280;39539;52.202;9.876;2023-05-23T09:30:06;100930.75;;;13.84;100.00
19676;BME280;39539;52.202;9.876;2023-05-23T09:32:32;100940.53;;;13.72;100.00
19676;BME280;39539;52.202;9.876;2023-05-23T09:35:04;100923.00;;;13.58;100.00
19676;BME280;39539;52.202;9.876;2023-05-23T09:37:38;100944.88;;;13.48;100.00
19676;BME280;39539;52.202;9.876;2023-05-23T09:40:12;100937.31;;;13.45;100.00
19676;BME280;39539;52.202;9.876;2023-05-23T09:42:44;100945.59;;;13.37;100.00
19676;BME280;39539;52.202;9.876;2023-05-23T09:45:12;100952.38;;;13.33;100.00
19676;BME280;39539;52.202;9.876;2023-05-23T09:47:38;100960.03;;;13.29;100.00
19676;BME280;39539;52.202;9.876;2023-05-23T09:50:14;100945.72;;;13.17;100.00
19676;BME280;39539;52.202;9.876;2023-05-23T09:52:39;100957.38;;;13.22;100.00
19676;BME280;39539;52.202;9.876;2023-05-23T09:55:05;100939.59;;;13.10;100.00
19676;BME280;39539;52.202;9.876;2023-05-23T09:57:34;100961.91;;;13.22;100.00
19676;BME280;39539;52.202;9.876;2023-05-23T10:00:03;100951.69;;;13.12;100.00
19676;BME280;39539;52.202;9.876;2023-05-23T10:03:10;100966.47;;;13.15;100.00
19676;BME280;39539;52.202;9.876;2023-05-23T10:05:56;100961.63;;;13.05;100.00
19676;BME280;39539;52.202;9.876;2023-05-23T10:08:37;100970.44;;;13.06;100.00
19676;BME280;39539;52.202;9.876;2023-05-23T10:13:44;100975.78;;;13.06;100.00
19676;BME280;39539;52.202;9.876;2023-05-23T10:22:05;101002.34;;;13.19;100.00
19676;BME280;39539;52.202;9.876;2023-05-23T10:24:31;101003.41;;;13.18;100.00
19676;BME280;39539;52.202;9.876;2023-05-23T10:26:59;101010.78;;;13.22;100.00
19676;BME280;39539;52.202;9.876;2023-05-23T10:29:25;101005.63;;;13.28;100.00
19676;BME280;39539;52.202;9.876;2023-05-23T10:31:51;101009.72;;;13.23;100.00
19676;BME280;39539;52.202;9.876;2023-05-23T10:34:22;101019.53;;;13.36;100.00
19676;BME280;39539;52.202;9.876;2023-05-23T10:40:18;101023.78;;;13.44;100.00
19676;BME280;39539;52.202;9.876;2023-05-23T10:42:27;101015.56;;;13.45;100.00
19676;BME280;39539;52.202;9.876;2023-05-23T10:45:26;101016.38;;;13.46;100.00
19676;BME280;39539;52.202;9.876;2023-05-23T10:47:52;101025.44;;;13.45;100.00
19676;BME280;39539;52.202;9.876;2023-05-23T10:50:34;101014.78;;;13.38;100.00
19676;BME280;39539;52.202;9.876;2023-05-23T10:53:03;101023.94;;;13.49;100.00
19676;BME280;39539;52.202;9.876;2023-05-23T10:55:33;101025.09;;;13.60;100.00
19676;BME280;39539;52.202;9.876;2023-05-23T10:58:15;101025.31;;;13.58;100.00
19676;BME280;39539;52.202;9.876;2023-05-23T11:01:04;101032.69;;;13.63;100.00
19676;BME280;39539;52.202;9.876;2023-05-23T11:06:43;101041.75;;;13.62;100.00
19676;BME280;39539;52.202;9.876;2023-05-23T11:14:21;101060.97;;;13.45;100.00
19676;BME280;39539;52.202;9.876;2023-05-23T11:17:14;101055.94;;;13.31;100.00
19676;BME280;39539;52.202;9.876;2023-05-23T11:20:06;101068.06;;;13.20;100.00
19676;BME280;39539;52.202;9.876;2023-05-23T11:22:34;101065.28;;;13.01;100.00
19676;BME280;39539;52.202;9.876;2023-05-23T11:25:06;101081.09;;;12.96;100.00
19676;BME280;39539;52.202;9.876;2023-05-23T11:27:34;101063.94;;;12.79;100.00
19676;BME280;39539;52.202;9.876;2023-05-23T11:30:16;101074.47;;;12.74;100.00
19676;BME280;39539;52.202;9.876;2023-05-23T11:32:52;101080.41;;;12.69;100.00
19676;BME280;39539;52.202;9.876;2023-05-23T11:35:20;101077.56;;;12.64;100.00
19676;BME280;39539;52.202;9.876;2023-05-23T11:37:46;101072.66;;;12.54;100.00
19676;BME280;39539;52.202;9.876;2023-05-23T11:43:04;101083.44;;;12.86;100.00
19676;BME280;39539;52.202;9.876;2023-05-23T11:45:34;101074.00;;;12.84;100.00
19676;BME280;39539;52.202;9.876;2023-05-23T11:48:09;101089.09;;;13.03;100.00
19676;BME280;39539;52.202;9.876;2023-05-23T11:50:48;101084.75;;;13.09;100.00
19676;BME280;39539;52.202;9.876;2023-05-23T11:53:18;101071.84;;;13.06;100.00
19676;BME280;39539;52.202;9.876;2023-05-23T11:56:03;101097.88;;;13.17;100.00
19676;BME280;39539;52.202;9.876;2023-05-23T11:58:56;101096.19;;;13.29;100.00
19676;BME280;39539;52.202;9.876;2023-05-23T12:01:28;101081.94;;;13.67;100.00
19676;BME280;39539;52.202;9.876;2023-05-23T12:04:10;101097.78;;;14.62;100.00
19676;BME280;39539;52.202;9.876;2023-05-23T12:06:38;101105.47;;;15.07;100.00
19676;BME280;39539;52.202;9.876;2023-05-23T12:09:09;101110.84;;;14.89;100.00
19676;BME280;39539;52.202;9.876;2023-05-23T12:11:35;101115.53;;;14.31;100.00
19676;BME280;39539;52.202;9.876;2023-05-23T12:14:01;101111.25;;;14.05;100.00
19676;BME280;39539;52.202;9.876;2023-05-23T12:16:32;101089.28;;;13.46;100.00
19676;BME280;39539;52.202;9.876;2023-05-23T12:18:59;101100.66;;;13.35;100.00
19676;BME280;39539;52.202;9.876;2023-05-23T12:21:25;101108.81;;;13.47;100.00
19676;BME280;39539;52.202;9.876;2023-05-23T12:23:52;101107.97;;;13.53;100.00
19676;BME280;39539;52.202;9.876;2023-05-23T12:26:23;101101.50;;;13.67;100.00
19676;BME280;39539;52.202;9.876;2023-05-23T12:28:50;101120.44;;;14.34;100.00
19676;BME280;39539;52.202;9.876;2023-05-23T12:31:17;101127.66;;;14.96;100.00
19676;BME280;39539;52.202;9.876;2023-05-23T12:33:44;101124.53;;;15.59;94.60
19676;BME280;39539;52.202;9.876;2023-05-23T12:36:11;101109.44;;;15.77;91.83
19676;BME280;39539;52.202;9.876;2023-05-23T12:38:37;101111.31;;;15.88;93.74
19676;BME280;39539;52.202;9.876;2023-05-23T12:41:15;101117.53;;;16.24;91.65
19676;BME280;39539;52.202;9.876;2023-05-23T12:43:52;101111.50;;;16.28;90.67
19676;BME280;39539;52.202;9.876;2023-05-23T12:46:20;101111.84;;;16.08;89.11
19676;BME280;39539;52.202;9.876;2023-05-23T12:48:46;101106.75;;;15.77;90.75
19676;BME280;39539;52.202;9.876;2023-05-23T12:51:15;101114.13;;;15.51;91.44
19676;BME280;39539;52.202;9.876;2023-05-23T12:53:41;101118.03;;;15.37;94.13
19676;BME280;39539;52.202;9.876;2023-05-23T12:56:06;101122.13;;;15.39;93.03
19676;BME280;39539;52.202;9.876;2023-05-23T12:58:32;101127.81;;;15.31;92.19
19676;BME280;39539;52.202;9.876;2023-05-23T13:00:58;101128.66;;;15.13;92.49
19676;BME280;39539;52.202;9.876;2023-05-23T13:03:24;101113.06;;;15.10;93.11
19676;BME280;39539;52.202;9.876;2023-05-23T13:05:56;101133.94;;;15.50;91.72
19676;BME280;39539;52.202;9.876;2023-05-23T13:08:23;101127.53;;;15.81;88.95
19676;BME280;39539;52.202;9.876;2023-05-23T13:10:54;101127.06;;;15.96;86.68
19676;BME280;39539;52.202;9.876;2023-05-23T13:13:25;101140.63;;;16.01;87.13
19676;BME280;39539;52.202;9.876;2023-05-23T13:15:50;101125.72;;;16.05;86.40
19676;BME280;39539;52.202;9.876;2023-05-23T13:18:16;101139.81;;;16.36;86.78
19676;BME280;39539;52.202;9.876;2023-05-23T13:20:42;101137.13;;;16.36;84.49
19676;BME280;39539;52.202;9.876;2023-05-23T13:23:08;101132.69;;;16.30;83.58
19676;BME280;39539;52.202;9.876;2023-05-23T13:25:34;101142.53;;;16.48;84.94